sensor_id;sensor_type;location;lat;lon;timestamp;P1;durP1;ratioP1;P2;durP2;ratioP2
37483;SDS011;23337;52.212;9.926;2024-02-16T00:00:48;2.90;;;1.70;;
37483;SDS011;23337;52.212;9.926;2024-02-16T00:03:14;1.83;;;1.57;;
37483;SDS011;23337;52.212;9.926;2024-02-16T00:05:40;6.07;;;1.90;;
37483;SDS011;23337;52.212;9.926;2024-02-16T00:08:06;2.90;;;1.50;;
37483;SDS011;23337;52.212;9.926;2024-02-16T00:10:31;2.47;;;1.50;;
37483;SDS011;23337;52.212;9.926;2024-02-16T00:12:57;4.83;;;1.70;;
37483;SDS011;23337;52.212;9.926;2024-02-16T00:15:23;2.77;;;1.20;;
37483;SDS011;23337;52.212;9.926;2024-02-16T00:17:49;3.03;;;1.40;;
37483;SDS011;23337;52.212;9.926;2024-02-16T00:20:15;1.67;;;1.17;;
37483;SDS011;23337;52.212;9.926;2024-02-16T00:22:42;3.00;;;1.20;;
37483;SDS011;23337;52.212;9.926;2024-02-16T00:25:08;2.20;;;1.53;;
37483;SDS011;23337;52.212;9.926;2024-02-16T00:27:34;2.37;;;1.43;;
37483;SDS011;23337;52.212;9.926;2024-02-16T00:30:00;2.90;;;1.47;;
37483;SDS011;23337;52.212;9.926;2024-02-16T00:32:27;1.80;;;1.40;;
37483;SDS011;23337;52.212;9.926;2024-02-16T00:34:55;3.60;;;2.13;;
37483;SDS011;23337;52.212;9.926;2024-02-16T00:37:21;2.43;;;1.73;;
37483;SDS011;23337;52.212;9.926;2024-02-16T00:39:47;3.13;;;1.70;;
37483;SDS011;23337;52.212;9.926;2024-02-16T00:42:13;1.93;;;1.20;;
37483;SDS011;23337;52.212;9.926;2024-02-16T00:44:39;1.77;;;1.50;;
37483;SDS011;23337;52.212;9.926;2024-02-16T00:47:05;4.17;;;1.67;;
37483;SDS011;23337;52.212;9.926;2024-02-16T00:49:31;4.50;;;1.70;;
37483;SDS011;23337;52.212;9.926;2024-02-16T00:51:57;4.90;;;1.93;;
37483;SDS011;23337;52.212;9.926;2024-02-16T00:54:23;5.27;;;1.80;;
37483;SDS011;23337;52.212;9.926;2024-02-16T00:56:49;2.97;;;1.50;;
37483;SDS011;23337;52.212;9.926;2024-02-16T00:59:15;3.40;;;1.50;;
37483;SDS011;23337;52.212;9.926;2024-02-16T01:01:41;4.33;;;1.37;;
37483;SDS011;23337;52.212;9.926;2024-02-16T01:04:07;3.17;;;1.40;;
37483;SDS011;23337;52.212;9.926;2024-02-16T01:06:34;3.10;;;1.53;;
37483;SDS011;23337;52.212;9.926;2024-02-16T01:09:00;2.33;;;1.13;;
37483;SDS011;23337;52.212;9.926;2024-02-16T01:11:26;2.57;;;1.30;;
37483;SDS011;23337;52.212;9.926;2024-02-16T01:13:52;4.97;;;1.40;;
37483;SDS011;23337;52.212;9.926;2024-02-16T01:16:18;3.53;;;1.50;;
37483;SDS011;23337;52.212;9.926;2024-02-16T01:18:44;2.63;;;1.77;;
37483;SDS011;23337;52.212;9.926;2024-02-16T01:21:11;4.73;;;1.60;;
37483;SDS011;23337;52.212;9.926;2024-02-16T01:23:37;9.00;;;2.27;;
37483;SDS011;23337;52.212;9.926;2024-02-16T01:26:03;2.27;;;1.97;;
37483;SDS011;23337;52.212;9.926;2024-02-16T01:28:29;2.87;;;1.47;;
37483;SDS011;23337;52.212;9.926;2024-02-16T01:30:54;8.50;;;2.03;;
37483;SDS011;23337;52.212;9.926;2024-02-16T01:33:23;2.80;;;1.70;;
37483;SDS011;23337;52.212;9.926;2024-02-16T01:35:49;2.80;;;1.50;;
37483;SDS011;23337;52.212;9.926;2024-02-16T01:38:15;4.67;;;1.47;;
37483;SDS011;23337;52.212;9.926;2024-02-16T01:40:41;1.87;;;1.40;;
37483;SDS011;23337;52.212;9.926;2024-02-16T01:43:07;6.23;;;1.43;;
37483;SDS011;23337;52.212;9.926;2024-02-16T01:45:33;4.97;;;1.40;;
37483;SDS011;23337;52.212;9.926;2024-02-16T01:47:59;3.13;;;1.27;;
37483;SDS011;23337;52.212;9.926;2024-02-16T01:50:25;2.60;;;1.40;;
37483;SDS011;23337;52.212;9.926;2024-02-16T01:52:54;2.33;;;1.20;;
37483;SDS011;23337;52.212;9.926;2024-02-16T01:55:20;4.57;;;1.50;;
37483;SDS011;23337;52.212;9.926;2024-02-16T01:57:47;3.37;;;2.20;;
37483;SDS011;23337;52.212;9.926;2024-02-16T02:00:13;3.40;;;1.53;;
37483;SDS011;23337;52.212;9.926;2024-02-16T02:02:40;4.87;;;1.43;;
37483;SDS011;23337;52.212;9.926;2024-02-16T02:05:06;2.23;;;1.70;;
37483;SDS011;23337;52.212;9.926;2024-02-16T02:07:32;5.57;;;1.60;;
37483;SDS011;23337;52.212;9.926;2024-02-16T02:09:58;4.97;;;1.60;;
37483;SDS011;23337;52.212;9.926;2024-02-16T02:12:25;3.33;;;1.30;;
37483;SDS011;23337;52.212;9.926;2024-02-16T02:14:51;1.93;;;1.20;;
37483;SDS011;23337;52.212;9.926;2024-02-16T02:17:18;1.63;;;1.27;;
37483;SDS011;23337;52.212;9.926;2024-02-16T02:19:45;3.90;;;1.37;;
37483;SDS011;23337;52.212;9.926;2024-02-16T02:22:17;1.97;;;1.17;;
37483;SDS011;23337;52.212;9.926;2024-02-16T02:24:43;2.47;;;1.50;;
37483;SDS011;23337;52.212;9.926;2024-02-16T02:27:10;2.30;;;1.37;;
37483;SDS011;23337;52.212;9.926;2024-02-16T02:29:36;2.00;;;1.20;;
37483;SDS011;23337;52.212;9.926;2024-02-16T02:32:02;3.80;;;1.53;;
37483;SDS011;23337;52.212;9.926;2024-02-16T02:34:29;4.53;;;2.03;;
37483;SDS011;23337;52.212;9.926;2024-02-16T02:36:55;3.27;;;1.27;;
37483;SDS011;23337;52.212;9.926;2024-02-16T02:39:21;4.07;;;1.20;;
37483;SDS011;23337;52.212;9.926;2024-02-16T02:41:47;3.50;;;1.60;;
37483;SDS011;23337;52.212;9.926;2024-02-16T02:44:13;2.67;;;1.67;;
37483;SDS011;23337;52.212;9.926;2024-02-16T02:46:39;3.17;;;1.60;;
37483;SDS011;23337;52.212;9.926;2024-02-16T02:49:05;1.47;;;1.20;;
37483;SDS011;23337;52.212;9.926;2024-02-16T02:51:31;2.40;;;1.00;;
37483;SDS011;23337;52.212;9.926;2024-02-16T02:53:57;1.73;;;1.30;;
37483;SDS011;23337;52.212;9.926;2024-02-16T02:56:23;1.23;;;1.07;;
37483;SDS011;23337;52.212;9.926;2024-02-16T02:58:49;1.80;;;1.20;;
37483;SDS011;23337;52.212;9.926;2024-02-16T03:01:15;1.73;;;1.30;;
37483;SDS011;23337;52.212;9.926;2024-02-16T03:03:41;2.70;;;1.37;;
37483;SDS011;23337;52.212;9.926;2024-02-16T03:06:08;2.73;;;1.43;;
37483;SDS011;23337;52.212;9.926;2024-02-16T03:08:35;1.73;;;1.10;;
37483;SDS011;23337;52.212;9.926;2024-02-16T03:11:01;3.00;;;1.20;;
37483;SDS011;23337;52.212;9.926;2024-02-16T03:13:28;3.23;;;1.37;;
37483;SDS011;23337;52.212;9.926;2024-02-16T03:15:54;2.53;;;1.00;;
37483;SDS011;23337;52.212;9.926;2024-02-16T03:18:20;2.60;;;0.97;;
37483;SDS011;23337;52.212;9.926;2024-02-16T03:20:46;1.77;;;1.60;;
37483;SDS011;23337;52.212;9.926;2024-02-16T03:23:14;2.60;;;1.40;;
37483;SDS011;23337;52.212;9.926;2024-02-16T03:25:40;3.30;;;1.50;;
37483;SDS011;23337;52.212;9.926;2024-02-16T03:28:11;3.77;;;1.43;;
37483;SDS011;23337;52.212;9.926;2024-02-16T03:30:37;4.60;;;1.73;;
37483;SDS011;23337;52.212;9.926;2024-02-16T03:33:03;2.87;;;1.37;;
37483;SDS011;23337;52.212;9.926;2024-02-16T03:35:32;2.47;;;1.27;;
37483;SDS011;23337;52.212;9.926;2024-02-16T03:37:58;3.20;;;1.10;;
37483;SDS011;23337;52.212;9.926;2024-02-16T03:40:24;4.13;;;1.30;;
37483;SDS011;23337;52.212;9.926;2024-02-16T03:42:51;3.43;;;1.17;;
37483;SDS011;23337;52.212;9.926;2024-02-16T03:45:17;1.33;;;1.00;;
37483;SDS011;23337;52.212;9.926;2024-02-16T03:47:43;3.27;;;1.20;;
37483;SDS011;23337;52.212;9.926;2024-02-16T03:50:09;3.27;;;1.20;;
37483;SDS011;23337;52.212;9.926;2024-02-16T03:52:36;5.33;;;1.33;;
37483;SDS011;23337;52.212;9.926;2024-02-16T03:55:02;2.47;;;1.27;;
37483;SDS011;23337;52.212;9.926;2024-02-16T03:57:29;2.03;;;1.23;;
37483;SDS011;23337;52.212;9.926;2024-02-16T03:59:56;4.20;;;1.40;;
37483;SDS011;23337;52.212;9.926;2024-02-16T04:02:22;3.10;;;1.50;;
37483;SDS011;23337;52.212;9.926;2024-02-16T04:04:48;3.27;;;1.47;;
37483;SDS011;23337;52.212;9.926;2024-02-16T04:07:14;3.67;;;1.40;;
37483;SDS011;23337;52.212;9.926;2024-02-16T04:09:40;1.93;;;1.13;;
37483;SDS011;23337;52.212;9.926;2024-02-16T04:12:06;2.87;;;1.57;;
37483;SDS011;23337;52.212;9.926;2024-02-16T04:14:32;1.57;;;1.17;;
37483;SDS011;23337;52.212;9.926;2024-02-16T04:16:58;1.73;;;1.23;;
37483;SDS011;23337;52.212;9.926;2024-02-16T04:19:25;4.37;;;1.33;;
37483;SDS011;23337;52.212;9.926;2024-02-16T04:21:51;2.50;;;0.90;;
37483;SDS011;23337;52.212;9.926;2024-02-16T04:24:17;4.90;;;1.40;;
37483;SDS011;23337;52.212;9.926;2024-02-16T04:26:43;4.40;;;1.60;;
37483;SDS011;23337;52.212;9.926;2024-02-16T04:29:09;2.63;;;1.33;;
37483;SDS011;23337;52.212;9.926;2024-02-16T04:31:38;3.17;;;1.47;;
37483;SDS011;23337;52.212;9.926;2024-02-16T04:34:05;3.20;;;1.33;;
37483;SDS011;23337;52.212;9.926;2024-02-16T04:36:31;2.77;;;1.10;;
37483;SDS011;23337;52.212;9.926;2024-02-16T04:38:57;2.73;;;1.17;;
37483;SDS011;23337;52.212;9.926;2024-02-16T04:41:23;2.43;;;1.20;;
37483;SDS011;23337;52.212;9.926;2024-02-16T04:43:48;4.43;;;1.10;;
37483;SDS011;23337;52.212;9.926;2024-02-16T04:46:15;3.20;;;1.23;;
37483;SDS011;23337;52.212;9.926;2024-02-16T04:48:41;2.07;;;1.20;;
37483;SDS011;23337;52.212;9.926;2024-02-16T04:51:07;3.53;;;1.60;;
37483;SDS011;23337;52.212;9.926;2024-02-16T04:53:33;2.33;;;1.47;;
37483;SDS011;23337;52.212;9.926;2024-02-16T04:55:59;2.03;;;1.30;;
37483;SDS011;23337;52.212;9.926;2024-02-16T04:58:27;2.20;;;1.67;;
37483;SDS011;23337;52.212;9.926;2024-02-16T05:00:53;3.30;;;1.30;;
37483;SDS011;23337;52.212;9.926;2024-02-16T05:03:19;1.80;;;1.10;;
37483;SDS011;23337;52.212;9.926;2024-02-16T05:05:45;3.00;;;1.43;;
37483;SDS011;23337;52.212;9.926;2024-02-16T05:08:11;2.57;;;1.13;;
37483;SDS011;23337;52.212;9.926;2024-02-16T05:10:37;1.77;;;1.57;;
37483;SDS011;23337;52.212;9.926;2024-02-16T05:13:03;1.50;;;1.40;;
37483;SDS011;23337;52.212;9.926;2024-02-16T05:15:30;3.70;;;1.57;;
37483;SDS011;23337;52.212;9.926;2024-02-16T05:17:56;3.17;;;1.43;;
37483;SDS011;23337;52.212;9.926;2024-02-16T05:20:22;5.33;;;1.90;;
37483;SDS011;23337;52.212;9.926;2024-02-16T05:22:49;3.83;;;1.50;;
37483;SDS011;23337;52.212;9.926;2024-02-16T05:25:18;1.63;;;1.30;;
37483;SDS011;23337;52.212;9.926;2024-02-16T05:27:44;1.87;;;1.23;;
37483;SDS011;23337;52.212;9.926;2024-02-16T05:30:11;1.30;;;1.20;;
37483;SDS011;23337;52.212;9.926;2024-02-16T05:32:39;2.87;;;1.40;;
37483;SDS011;23337;52.212;9.926;2024-02-16T05:35:06;3.00;;;1.30;;
37483;SDS011;23337;52.212;9.926;2024-02-16T05:37:46;1.20;;;0.90;;
37483;SDS011;23337;52.212;9.926;2024-02-16T05:40:16;4.37;;;1.67;;
37483;SDS011;23337;52.212;9.926;2024-02-16T05:42:56;2.50;;;1.40;;
37483;SDS011;23337;52.212;9.926;2024-02-16T05:45:25;2.40;;;1.00;;
37483;SDS011;23337;52.212;9.926;2024-02-16T05:47:54;2.37;;;1.10;;
37483;SDS011;23337;52.212;9.926;2024-02-16T05:50:20;2.10;;;1.40;;
37483;SDS011;23337;52.212;9.926;2024-02-16T05:52:47;2.87;;;1.50;;
37483;SDS011;23337;52.212;9.926;2024-02-16T05:55:14;3.73;;;1.03;;
37483;SDS011;23337;52.212;9.926;2024-02-16T05:57:40;3.77;;;1.30;;
37483;SDS011;23337;52.212;9.926;2024-02-16T06:00:07;1.87;;;1.40;;
37483;SDS011;23337;52.212;9.926;2024-02-16T06:02:34;2.60;;;1.20;;
37483;SDS011;23337;52.212;9.926;2024-02-16T06:05:01;1.93;;;1.20;;
37483;SDS011;23337;52.212;9.926;2024-02-16T06:07:27;3.07;;;1.40;;
37483;SDS011;23337;52.212;9.926;2024-02-16T06:09:57;3.30;;;1.70;;
37483;SDS011;23337;52.212;9.926;2024-02-16T06:12:23;2.37;;;1.40;;
37483;SDS011;23337;52.212;9.926;2024-02-16T06:14:49;6.13;;;1.70;;
37483;SDS011;23337;52.212;9.926;2024-02-16T06:17:16;3.73;;;1.43;;
37483;SDS011;23337;52.212;9.926;2024-02-16T06:19:42;3.40;;;1.90;;
37483;SDS011;23337;52.212;9.926;2024-02-16T06:22:08;2.00;;;1.03;;
37483;SDS011;23337;52.212;9.926;2024-02-16T06:24:34;2.40;;;1.13;;
37483;SDS011;23337;52.212;9.926;2024-02-16T06:27:00;1.90;;;1.20;;
37483;SDS011;23337;52.212;9.926;2024-02-16T06:29:26;3.40;;;1.40;;
37483;SDS011;23337;52.212;9.926;2024-02-16T06:31:53;2.50;;;1.30;;
37483;SDS011;23337;52.212;9.926;2024-02-16T06:34:19;2.97;;;1.57;;
37483;SDS011;23337;52.212;9.926;2024-02-16T06:36:45;2.13;;;1.30;;
37483;SDS011;23337;52.212;9.926;2024-02-16T06:39:11;1.70;;;1.20;;
37483;SDS011;23337;52.212;9.926;2024-02-16T06:41:41;3.87;;;1.60;;
37483;SDS011;23337;52.212;9.926;2024-02-16T06:44:09;2.90;;;1.30;;
37483;SDS011;23337;52.212;9.926;2024-02-16T06:46:35;4.13;;;1.83;;
37483;SDS011;23337;52.212;9.926;2024-02-16T06:49:00;2.40;;;1.60;;
37483;SDS011;23337;52.212;9.926;2024-02-16T06:51:27;3.90;;;1.80;;
37483;SDS011;23337;52.212;9.926;2024-02-16T06:53:53;4.63;;;1.60;;
37483;SDS011;23337;52.212;9.926;2024-02-16T06:56:19;2.97;;;1.70;;
37483;SDS011;23337;52.212;9.926;2024-02-16T06:58:46;3.77;;;1.60;;
37483;SDS011;23337;52.212;9.926;2024-02-16T07:01:15;2.83;;;1.50;;
37483;SDS011;23337;52.212;9.926;2024-02-16T07:03:42;5.37;;;2.13;;
37483;SDS011;23337;52.212;9.926;2024-02-16T07:06:08;4.87;;;1.70;;
37483;SDS011;23337;52.212;9.926;2024-02-16T07:08:38;3.27;;;1.80;;
37483;SDS011;23337;52.212;9.926;2024-02-16T07:11:04;5.23;;;2.00;;
37483;SDS011;23337;52.212;9.926;2024-02-16T07:13:31;3.30;;;1.70;;
37483;SDS011;23337;52.212;9.926;2024-02-16T07:15:57;2.80;;;2.17;;
37483;SDS011;23337;52.212;9.926;2024-02-16T07:18:23;2.47;;;1.30;;
37483;SDS011;23337;52.212;9.926;2024-02-16T07:20:49;3.13;;;1.43;;
37483;SDS011;23337;52.212;9.926;2024-02-16T07:23:15;2.10;;;1.50;;
37483;SDS011;23337;52.212;9.926;2024-02-16T07:25:41;4.80;;;1.80;;
37483;SDS011;23337;52.212;9.926;2024-02-16T07:28:07;3.57;;;1.47;;
37483;SDS011;23337;52.212;9.926;2024-02-16T07:30:34;2.43;;;1.43;;
37483;SDS011;23337;52.212;9.926;2024-02-16T07:33:01;3.23;;;1.63;;
37483;SDS011;23337;52.212;9.926;2024-02-16T07:35:27;4.87;;;2.07;;
37483;SDS011;23337;52.212;9.926;2024-02-16T07:37:53;4.80;;;2.23;;
37483;SDS011;23337;52.212;9.926;2024-02-16T07:40:22;3.37;;;2.10;;
37483;SDS011;23337;52.212;9.926;2024-02-16T07:42:48;5.93;;;1.60;;
37483;SDS011;23337;52.212;9.926;2024-02-16T07:45:14;3.00;;;2.00;;
37483;SDS011;23337;52.212;9.926;2024-02-16T07:47:40;3.07;;;1.53;;
37483;SDS011;23337;52.212;9.926;2024-02-16T07:50:06;2.67;;;1.63;;
37483;SDS011;23337;52.212;9.926;2024-02-16T07:52:32;2.80;;;1.93;;
37483;SDS011;23337;52.212;9.926;2024-02-16T07:54:58;4.03;;;1.50;;
37483;SDS011;23337;52.212;9.926;2024-02-16T07:57:24;2.33;;;1.53;;
37483;SDS011;23337;52.212;9.926;2024-02-16T07:59:51;6.20;;;1.97;;
37483;SDS011;23337;52.212;9.926;2024-02-16T08:02:17;2.97;;;1.57;;
37483;SDS011;23337;52.212;9.926;2024-02-16T08:04:48;4.77;;;2.40;;
37483;SDS011;23337;52.212;9.926;2024-02-16T08:07:14;2.57;;;1.50;;
37483;SDS011;23337;52.212;9.926;2024-02-16T08:09:43;4.07;;;1.60;;
37483;SDS011;23337;52.212;9.926;2024-02-16T08:12:09;4.47;;;1.53;;
37483;SDS011;23337;52.212;9.926;2024-02-16T08:14:35;2.47;;;1.60;;
37483;SDS011;23337;52.212;9.926;2024-02-16T08:17:01;4.27;;;1.63;;
37483;SDS011;23337;52.212;9.926;2024-02-16T08:19:31;3.23;;;1.90;;
37483;SDS011;23337;52.212;9.926;2024-02-16T08:21:59;3.80;;;1.83;;
37483;SDS011;23337;52.212;9.926;2024-02-16T08:24:25;4.40;;;2.20;;
37483;SDS011;23337;52.212;9.926;2024-02-16T08:26:51;4.00;;;2.07;;
37483;SDS011;23337;52.212;9.926;2024-02-16T08:29:17;2.63;;;1.80;;
37483;SDS011;23337;52.212;9.926;2024-02-16T08:31:45;4.77;;;1.40;;
37483;SDS011;23337;52.212;9.926;2024-02-16T08:34:11;2.77;;;1.40;;
37483;SDS011;23337;52.212;9.926;2024-02-16T08:36:37;3.27;;;1.70;;
37483;SDS011;23337;52.212;9.926;2024-02-16T08:39:05;3.33;;;1.70;;
37483;SDS011;23337;52.212;9.926;2024-02-16T08:41:31;2.70;;;1.70;;
37483;SDS011;23337;52.212;9.926;2024-02-16T08:43:57;2.60;;;1.27;;
37483;SDS011;23337;52.212;9.926;2024-02-16T08:46:23;3.07;;;1.80;;
37483;SDS011;23337;52.212;9.926;2024-02-16T08:48:49;2.40;;;1.83;;
37483;SDS011;23337;52.212;9.926;2024-02-16T08:51:15;1.93;;;1.63;;
37483;SDS011;23337;52.212;9.926;2024-02-16T08:53:41;2.13;;;1.27;;
37483;SDS011;23337;52.212;9.926;2024-02-16T08:56:10;3.13;;;1.40;;
37483;SDS011;23337;52.212;9.926;2024-02-16T08:58:36;1.70;;;1.57;;
37483;SDS011;23337;52.212;9.926;2024-02-16T09:01:02;2.60;;;1.30;;
37483;SDS011;23337;52.212;9.926;2024-02-16T09:03:28;3.27;;;1.97;;
37483;SDS011;23337;52.212;9.926;2024-02-16T09:05:58;1.30;;;1.20;;
37483;SDS011;23337;52.212;9.926;2024-02-16T09:08:23;3.10;;;1.33;;
37483;SDS011;23337;52.212;9.926;2024-02-16T09:10:51;3.63;;;1.60;;
37483;SDS011;23337;52.212;9.926;2024-02-16T09:13:17;2.27;;;1.57;;
37483;SDS011;23337;52.212;9.926;2024-02-16T09:15:43;2.37;;;1.50;;
37483;SDS011;23337;52.212;9.926;2024-02-16T09:18:09;2.13;;;1.33;;
37483;SDS011;23337;52.212;9.926;2024-02-16T09:20:35;2.93;;;1.60;;
37483;SDS011;23337;52.212;9.926;2024-02-16T09:23:01;2.13;;;1.33;;
37483;SDS011;23337;52.212;9.926;2024-02-16T09:25:27;3.20;;;1.50;;
37483;SDS011;23337;52.212;9.926;2024-02-16T09:27:53;3.27;;;1.53;;
37483;SDS011;23337;52.212;9.926;2024-02-16T09:30:19;2.47;;;1.40;;
37483;SDS011;23337;52.212;9.926;2024-02-16T09:32:46;3.97;;;2.07;;
37483;SDS011;23337;52.212;9.926;2024-02-16T09:35:12;2.83;;;1.50;;
37483;SDS011;23337;52.212;9.926;2024-02-16T09:37:39;3.10;;;1.70;;
37483;SDS011;23337;52.212;9.926;2024-02-16T09:40:05;2.40;;;1.50;;
37483;SDS011;23337;52.212;9.926;2024-02-16T09:42:31;3.63;;;1.60;;
37483;SDS011;23337;52.212;9.926;2024-02-16T09:44:59;1.53;;;1.43;;
37483;SDS011;23337;52.212;9.926;2024-02-16T09:47:25;4.43;;;1.60;;
37483;SDS011;23337;52.212;9.926;2024-02-16T09:49:55;2.37;;;1.47;;
37483;SDS011;23337;52.212;9.926;2024-02-16T09:52:21;2.97;;;1.20;;
37483;SDS011;23337;52.212;9.926;2024-02-16T09:54:47;4.00;;;1.83;;
37483;SDS011;23337;52.212;9.926;2024-02-16T09:57:16;3.73;;;1.83;;
37483;SDS011;23337;52.212;9.926;2024-02-16T09:59:42;3.13;;;1.60;;
37483;SDS011;23337;52.212;9.926;2024-02-16T10:02:08;2.70;;;1.17;;
37483;SDS011;23337;52.212;9.926;2024-02-16T10:04:34;2.27;;;1.30;;
37483;SDS011;23337;52.212;9.926;2024-02-16T10:07:00;2.67;;;1.40;;
37483;SDS011;23337;52.212;9.926;2024-02-16T10:09:27;3.03;;;1.60;;
37483;SDS011;23337;52.212;9.926;2024-02-16T10:11:57;9.37;;;2.17;;
37483;SDS011;23337;52.212;9.926;2024-02-16T10:14:23;3.30;;;1.73;;
37483;SDS011;23337;52.212;9.926;2024-02-16T10:17:00;2.13;;;1.37;;
37483;SDS011;23337;52.212;9.926;2024-02-16T10:19:28;3.37;;;1.87;;
37483;SDS011;23337;52.212;9.926;2024-02-16T10:22:04;3.73;;;1.80;;
37483;SDS011;23337;52.212;9.926;2024-02-16T10:24:32;3.80;;;1.67;;
37483;SDS011;23337;52.212;9.926;2024-02-16T10:26:58;6.93;;;1.93;;
37483;SDS011;23337;52.212;9.926;2024-02-16T10:29:24;5.10;;;1.77;;
37483;SDS011;23337;52.212;9.926;2024-02-16T10:31:53;4.87;;;1.60;;
37483;SDS011;23337;52.212;9.926;2024-02-16T10:34:19;5.00;;;1.60;;
37483;SDS011;23337;52.212;9.926;2024-02-16T10:36:45;4.73;;;1.97;;
37483;SDS011;23337;52.212;9.926;2024-02-16T10:39:11;2.40;;;1.30;;
37483;SDS011;23337;52.212;9.926;2024-02-16T10:41:40;2.53;;;1.73;;
37483;SDS011;23337;52.212;9.926;2024-02-16T10:44:06;4.40;;;1.60;;
37483;SDS011;23337;52.212;9.926;2024-02-16T10:46:32;4.03;;;1.70;;
37483;SDS011;23337;52.212;9.926;2024-02-16T10:48:58;4.80;;;1.90;;
37483;SDS011;23337;52.212;9.926;2024-02-16T10:51:34;2.87;;;1.43;;
37483;SDS011;23337;52.212;9.926;2024-02-16T10:54:01;2.10;;;1.40;;
37483;SDS011;23337;52.212;9.926;2024-02-16T10:56:36;3.43;;;1.57;;
37483;SDS011;23337;52.212;9.926;2024-02-16T10:59:06;2.53;;;1.50;;
37483;SDS011;23337;52.212;9.926;2024-02-16T11:01:33;3.93;;;1.87;;
37483;SDS011;23337;52.212;9.926;2024-02-16T11:04:06;2.30;;;1.37;;
37483;SDS011;23337;52.212;9.926;2024-02-16T11:09:30;3.03;;;1.70;;
37483;SDS011;23337;52.212;9.926;2024-02-16T11:12:00;2.57;;;1.93;;
37483;SDS011;23337;52.212;9.926;2024-02-16T11:14:39;2.67;;;1.37;;
37483;SDS011;23337;52.212;9.926;2024-02-16T11:17:08;3.13;;;1.77;;
37483;SDS011;23337;52.212;9.926;2024-02-16T11:19:35;2.40;;;1.50;;
37483;SDS011;23337;52.212;9.926;2024-02-16T11:22:04;3.53;;;1.80;;
37483;SDS011;23337;52.212;9.926;2024-02-16T11:24:34;3.53;;;1.87;;
37483;SDS011;23337;52.212;9.926;2024-02-16T11:27:01;3.33;;;1.40;;
37483;SDS011;23337;52.212;9.926;2024-02-16T11:29:29;4.33;;;1.40;;
37483;SDS011;23337;52.212;9.926;2024-02-16T11:31:56;3.07;;;1.43;;
37483;SDS011;23337;52.212;9.926;2024-02-16T11:34:25;3.17;;;1.40;;
37483;SDS011;23337;52.212;9.926;2024-02-16T11:36:52;4.63;;;2.00;;
37483;SDS011;23337;52.212;9.926;2024-02-16T11:39:18;3.93;;;1.30;;
37483;SDS011;23337;52.212;9.926;2024-02-16T11:41:45;2.27;;;1.43;;
37483;SDS011;23337;52.212;9.926;2024-02-16T11:44:12;3.17;;;1.33;;
37483;SDS011;23337;52.212;9.926;2024-02-16T11:46:41;3.60;;;1.63;;
37483;SDS011;23337;52.212;9.926;2024-02-16T11:49:07;3.53;;;1.50;;
37483;SDS011;23337;52.212;9.926;2024-02-16T11:51:33;3.23;;;2.07;;
37483;SDS011;23337;52.212;9.926;2024-02-16T11:53:59;5.83;;;2.10;;
37483;SDS011;23337;52.212;9.926;2024-02-16T11:56:26;2.03;;;1.47;;
37483;SDS011;23337;52.212;9.926;2024-02-16T11:58:52;5.40;;;1.93;;
37483;SDS011;23337;52.212;9.926;2024-02-16T12:01:19;3.53;;;1.80;;
37483;SDS011;23337;52.212;9.926;2024-02-16T12:03:46;2.10;;;1.47;;
37483;SDS011;23337;52.212;9.926;2024-02-16T12:06:19;3.67;;;1.70;;
37483;SDS011;23337;52.212;9.926;2024-02-16T12:08:46;3.10;;;1.70;;
37483;SDS011;23337;52.212;9.926;2024-02-16T12:11:12;2.40;;;1.40;;
37483;SDS011;23337;52.212;9.926;2024-02-16T12:13:39;2.87;;;1.73;;
37483;SDS011;23337;52.212;9.926;2024-02-16T12:16:05;2.23;;;1.67;;
37483;SDS011;23337;52.212;9.926;2024-02-16T12:18:32;1.83;;;1.50;;
37483;SDS011;23337;52.212;9.926;2024-02-16T12:23:24;3.23;;;1.70;;
37483;SDS011;23337;52.212;9.926;2024-02-16T12:25:50;4.27;;;1.90;;
37483;SDS011;23337;52.212;9.926;2024-02-16T12:28:16;2.23;;;1.83;;
37483;SDS011;23337;52.212;9.926;2024-02-16T12:30:42;4.17;;;1.83;;
37483;SDS011;23337;52.212;9.926;2024-02-16T12:33:08;5.57;;;2.03;;
37483;SDS011;23337;52.212;9.926;2024-02-16T12:35:33;2.60;;;1.90;;
37483;SDS011;23337;52.212;9.926;2024-02-16T12:38:00;2.57;;;2.00;;
37483;SDS011;23337;52.212;9.926;2024-02-16T12:40:25;5.23;;;2.53;;
37483;SDS011;23337;52.212;9.926;2024-02-16T12:42:52;2.07;;;1.43;;
37483;SDS011;23337;52.212;9.926;2024-02-16T12:45:18;4.10;;;1.77;;
37483;SDS011;23337;52.212;9.926;2024-02-16T12:47:44;3.17;;;1.70;;
37483;SDS011;23337;52.212;9.926;2024-02-16T12:50:12;3.57;;;1.83;;
37483;SDS011;23337;52.212;9.926;2024-02-16T12:52:37;4.83;;;2.13;;
37483;SDS011;23337;52.212;9.926;2024-02-16T12:55:07;1.77;;;1.40;;
37483;SDS011;23337;52.212;9.926;2024-02-16T12:57:36;4.13;;;2.37;;
37483;SDS011;23337;52.212;9.926;2024-02-16T13:00:03;2.20;;;1.70;;
37483;SDS011;23337;52.212;9.926;2024-02-16T13:02:29;3.60;;;1.97;;
37483;SDS011;23337;52.212;9.926;2024-02-16T13:04:55;3.90;;;2.30;;
37483;SDS011;23337;52.212;9.926;2024-02-16T13:07:21;3.00;;;2.10;;
37483;SDS011;23337;52.212;9.926;2024-02-16T13:09:47;3.53;;;1.90;;
37483;SDS011;23337;52.212;9.926;2024-02-16T13:12:15;5.10;;;1.93;;
37483;SDS011;23337;52.212;9.926;2024-02-16T13:14:41;5.47;;;2.30;;
37483;SDS011;23337;52.212;9.926;2024-02-16T13:17:07;2.93;;;1.93;;
37483;SDS011;23337;52.212;9.926;2024-02-16T13:19:33;3.87;;;1.83;;
37483;SDS011;23337;52.212;9.926;2024-02-16T13:21:59;4.73;;;2.30;;
37483;SDS011;23337;52.212;9.926;2024-02-16T13:24:25;3.53;;;1.90;;
37483;SDS011;23337;52.212;9.926;2024-02-16T13:26:51;4.60;;;2.00;;
37483;SDS011;23337;52.212;9.926;2024-02-16T13:29:17;3.87;;;2.23;;
37483;SDS011;23337;52.212;9.926;2024-02-16T13:31:43;5.87;;;2.23;;
37483;SDS011;23337;52.212;9.926;2024-02-16T13:34:09;4.23;;;1.67;;
37483;SDS011;23337;52.212;9.926;2024-02-16T13:36:35;3.73;;;2.10;;
37483;SDS011;23337;52.212;9.926;2024-02-16T13:39:00;4.60;;;2.13;;
37483;SDS011;23337;52.212;9.926;2024-02-16T13:41:26;4.10;;;2.20;;
37483;SDS011;23337;52.212;9.926;2024-02-16T13:43:52;5.50;;;2.20;;
37483;SDS011;23337;52.212;9.926;2024-02-16T13:46:18;5.53;;;2.50;;
37483;SDS011;23337;52.212;9.926;2024-02-16T13:48:44;6.83;;;2.83;;
37483;SDS011;23337;52.212;9.926;2024-02-16T13:51:10;3.53;;;1.87;;
37483;SDS011;23337;52.212;9.926;2024-02-16T13:53:36;4.60;;;2.43;;
37483;SDS011;23337;52.212;9.926;2024-02-16T13:56:02;5.77;;;2.30;;
37483;SDS011;23337;52.212;9.926;2024-02-16T13:58:29;3.93;;;2.40;;
37483;SDS011;23337;52.212;9.926;2024-02-16T14:00:56;4.53;;;2.80;;
37483;SDS011;23337;52.212;9.926;2024-02-16T14:03:22;4.27;;;2.67;;
37483;SDS011;23337;52.212;9.926;2024-02-16T14:05:48;5.30;;;2.40;;
37483;SDS011;23337;52.212;9.926;2024-02-16T14:08:14;5.20;;;2.63;;
37483;SDS011;23337;52.212;9.926;2024-02-16T14:10:41;3.70;;;2.43;;
37483;SDS011;23337;52.212;9.926;2024-02-16T14:13:07;6.93;;;2.57;;
37483;SDS011;23337;52.212;9.926;2024-02-16T14:15:34;4.83;;;2.40;;
37483;SDS011;23337;52.212;9.926;2024-02-16T14:18:00;6.20;;;2.30;;
37483;SDS011;23337;52.212;9.926;2024-02-16T14:20:26;4.80;;;2.77;;
37483;SDS011;23337;52.212;9.926;2024-02-16T14:22:52;3.83;;;2.50;;
37483;SDS011;23337;52.212;9.926;2024-02-16T14:25:18;5.47;;;2.60;;
37483;SDS011;23337;52.212;9.926;2024-02-16T14:27:44;4.53;;;2.60;;
37483;SDS011;23337;52.212;9.926;2024-02-16T14:30:11;2.57;;;2.13;;
37483;SDS011;23337;52.212;9.926;2024-02-16T14:32:37;6.77;;;3.17;;
37483;SDS011;23337;52.212;9.926;2024-02-16T14:35:03;5.70;;;2.83;;
37483;SDS011;23337;52.212;9.926;2024-02-16T14:37:30;3.17;;;2.23;;
37483;SDS011;23337;52.212;9.926;2024-02-16T14:39:57;6.80;;;3.20;;
37483;SDS011;23337;52.212;9.926;2024-02-16T14:42:24;4.30;;;2.80;;
37483;SDS011;23337;52.212;9.926;2024-02-16T14:44:50;7.33;;;2.60;;
37483;SDS011;23337;52.212;9.926;2024-02-16T14:47:16;3.70;;;2.20;;
37483;SDS011;23337;52.212;9.926;2024-02-16T14:49:42;5.87;;;2.63;;